Startpagina
METAR-TAF:

METAR-TAF

Vliegvelden :

Port of Spain, Trinidad, Trinidad en Tobago

breedte: 10-37N, lengte: 061-21W, hoogte: 12 m

Actueel weer

Dit bericht is 1 uur en het 0 minuten geleden gemaakt, om 12:00 UTC
Wind 9 kt uit het oosten
Temperatuur 29°C
Vochtigheid 74%
Druk 1015 hPa
Zicht 10 km of meer
Weinig wolken op 2000 ft

METAR: TTPP 261200Z 09009KT 9999 FEW020 29/24 Q1015 NOSIG

Tijdstip: 09:00 (13:00 UTC)

Verwachting

Dit bericht is 3 uur en het 0 minuten geleden gemaakt, om 10:00 UTC
Verwachting geldig van 26 om 12 UTC tot 27 om 12 UTC
Wind 15 kt uit het oosten
Verspreide wolken op 2200 ft
Wijzigt naar
van 27 om 00 UTC tot 27 om 02 UTC
Wind 5 kt uit het oosten
Kans 40% :
Tijdelijke
van 27 om 08 UTC tot 27 om 12 UTC
Zicht: 5000 m
Gebroken wolken op 1500 ft
regenbuien

TAF: TTPP 261000Z 2612/2712 09015KT SCT022 BECMG 2700/2702 09005KT PROB40 TEMPO 2708/2712 5000 SHRA BKN015

Waarnemingen en weersverwachtingen van meer dan 4000 vliegvelden (METAR en TAF).

De beschikbare stations zijn de gele en rode punten op de kaart.

Ga met uw muis naar het station om de naam te zien.

Klik dan om waarnemingen en weersverwachtingen te zien.

kaart wijzigen: klik op de groene knoppen met een zwart kruis om in te zoomen, op de groene knop met een streepje om uit te zoomen of op de groene pijlen voor aangrenzende kaarten.


METAR-TAF: